sensor_id;sensor_type;location;lat;lon;timestamp;pressure;altitude;pressure_sealevel;temperature;humidity
57668;BME280;43499;52.366;12.912;2022-08-01T00:08:30;100922.72;;;21.10;69.26
57668;BME280;43499;52.366;12.912;2022-08-01T00:15:57;100917.41;;;21.12;68.87
57668;BME280;43499;52.366;12.912;2022-08-01T00:25:08;100912.72;;;21.06;69.48
57668;BME280;43499;52.366;12.912;2022-08-01T01:07:03;100902.03;;;20.64;71.69
57668;BME280;43499;52.366;12.912;2022-08-01T01:17:36;100907.22;;;20.40;72.87
57668;BME280;43499;52.366;12.912;2022-08-01T01:25:24;100902.25;;;20.28;73.33
57668;BME280;43499;52.366;12.912;2022-08-01T01:27:15;100901.78;;;20.17;73.44
57668;BME280;43499;52.366;12.912;2022-08-01T01:49:27;100892.09;;;19.99;74.10
57668;BME280;43499;52.366;12.912;2022-08-01T02:01:05;100892.28;;;20.04;74.51
57668;BME280;43499;52.366;12.912;2022-08-01T02:10:39;100882.44;;;19.83;75.38
57668;BME280;43499;52.366;12.912;2022-08-01T02:39:18;100879.03;;;19.86;75.13
57668;BME280;43499;52.366;12.912;2022-08-01T02:46:40;100871.19;;;19.71;75.14
57668;BME280;43499;52.366;12.912;2022-08-01T02:47:49;100874.50;;;19.65;75.37
57668;BME280;43499;52.366;12.912;2022-08-01T02:48:59;100878.72;;;19.60;75.47
57668;BME280;43499;52.366;12.912;2022-08-01T02:50:12;100876.38;;;19.68;74.89
57668;BME280;43499;52.366;12.912;2022-08-01T02:51:16;100879.97;;;19.68;75.05
57668;BME280;43499;52.366;12.912;2022-08-01T02:52:24;100878.00;;;19.64;74.83
57668;BME280;43499;52.366;12.912;2022-08-01T02:53:32;100882.78;;;19.71;74.62
57668;BME280;43499;52.366;12.912;2022-08-01T02:54:49;100885.59;;;19.74;74.32
57668;BME280;43499;52.366;12.912;2022-08-01T02:56:11;100883.00;;;19.76;74.32
57668;BME280;43499;52.366;12.912;2022-08-01T02:57:26;100878.56;;;19.77;74.33
57668;BME280;43499;52.366;12.912;2022-08-01T02:58:29;100877.78;;;19.79;74.12
57668;BME280;43499;52.366;12.912;2022-08-01T02:59:32;100880.59;;;19.82;74.17
57668;BME280;43499;52.366;12.912;2022-08-01T03:00:38;100873.38;;;19.80;73.37
57668;BME280;43499;52.366;12.912;2022-08-01T03:01:44;100879.72;;;19.82;73.49
57668;BME280;43499;52.366;12.912;2022-08-01T03:02:53;100875.06;;;19.78;73.75
57668;BME280;43499;52.366;12.912;2022-08-01T03:03:59;100886.88;;;19.83;73.68
57668;BME280;43499;52.366;12.912;2022-08-01T03:05:09;100888.59;;;19.82;73.86
57668;BME280;43499;52.366;12.912;2022-08-01T03:06:19;100878.41;;;19.73;73.79
57668;BME280;43499;52.366;12.912;2022-08-01T03:07:28;100878.72;;;19.80;73.57
57668;BME280;43499;52.366;12.912;2022-08-01T03:08:36;100881.25;;;19.77;73.62
57668;BME280;43499;52.366;12.912;2022-08-01T03:09:47;100883.84;;;19.75;73.89
57668;BME280;43499;52.366;12.912;2022-08-01T03:10:52;100880.97;;;19.70;73.86
57668;BME280;43499;52.366;12.912;2022-08-01T03:11:57;100883.69;;;19.72;73.70
57668;BME280;43499;52.366;12.912;2022-08-01T03:13:01;100887.50;;;19.77;73.74
57668;BME280;43499;52.366;12.912;2022-08-01T03:14:10;100882.91;;;19.74;73.65
57668;BME280;43499;52.366;12.912;2022-08-01T03:15:16;100885.53;;;19.73;73.78
57668;BME280;43499;52.366;12.912;2022-08-01T03:16:30;100891.06;;;19.78;73.73
57668;BME280;43499;52.366;12.912;2022-08-01T03:17:47;100888.34;;;19.76;73.82
57668;BME280;43499;52.366;12.912;2022-08-01T03:18:52;100882.78;;;19.71;73.80
57668;BME280;43499;52.366;12.912;2022-08-01T03:19:58;100879.19;;;19.71;74.19
57668;BME280;43499;52.366;12.912;2022-08-01T03:21:10;100888.69;;;19.84;73.91
57668;BME280;43499;52.366;12.912;2022-08-01T03:22:13;100890.78;;;19.90;73.10
57668;BME280;43499;52.366;12.912;2022-08-01T03:23:38;100889.34;;;19.98;73.28
57668;BME280;43499;52.366;12.912;2022-08-01T03:24:44;100886.38;;;19.92;73.34
57668;BME280;43499;52.366;12.912;2022-08-01T03:25:49;100884.44;;;19.87;73.32
57668;BME280;43499;52.366;12.912;2022-08-01T03:26:58;100883.59;;;19.88;73.43
57668;BME280;43499;52.366;12.912;2022-08-01T03:28:13;100893.56;;;19.93;73.48
57668;BME280;43499;52.366;12.912;2022-08-01T03:29:24;100890.25;;;19.98;73.15
57668;BME280;43499;52.366;12.912;2022-08-01T03:30:27;100890.25;;;19.98;72.94
57668;BME280;43499;52.366;12.912;2022-08-01T03:31:30;100890.34;;;20.00;72.93
57668;BME280;43499;52.366;12.912;2022-08-01T03:32:42;100893.16;;;19.85;73.56
57668;BME280;43499;52.366;12.912;2022-08-01T03:33:45;100884.50;;;19.89;73.43
57668;BME280;43499;52.366;12.912;2022-08-01T03:34:49;100892.13;;;19.81;73.55
57668;BME280;43499;52.366;12.912;2022-08-01T03:35:55;100891.38;;;19.84;73.73
57668;BME280;43499;52.366;12.912;2022-08-01T03:37:14;100894.50;;;19.93;73.80
57668;BME280;43499;52.366;12.912;2022-08-01T03:38:24;100893.00;;;20.00;73.13
57668;BME280;43499;52.366;12.912;2022-08-01T03:39:46;100899.44;;;20.05;73.18
57668;BME280;43499;52.366;12.912;2022-08-01T03:41:01;100899.13;;;20.17;72.87
57668;BME280;43499;52.366;12.912;2022-08-01T03:42:12;100908.81;;;20.15;72.75
57668;BME280;43499;52.366;12.912;2022-08-01T03:43:18;100906.91;;;20.12;73.01
57668;BME280;43499;52.366;12.912;2022-08-01T03:44:24;100899.72;;;19.92;73.71
57668;BME280;43499;52.366;12.912;2022-08-01T03:45:31;100908.91;;;19.79;74.36
57668;BME280;43499;52.366;12.912;2022-08-01T03:46:48;100909.13;;;19.83;74.33
57668;BME280;43499;52.366;12.912;2022-08-01T03:48:32;100907.19;;;19.99;74.17
57668;BME280;43499;52.366;12.912;2022-08-01T03:49:43;100905.50;;;20.01;73.96
57668;BME280;43499;52.366;12.912;2022-08-01T03:50:53;100908.72;;;19.94;74.62
57668;BME280;43499;52.366;12.912;2022-08-01T03:52:01;100901.75;;;19.97;74.46
57668;BME280;43499;52.366;12.912;2022-08-01T03:53:30;100909.13;;;20.03;74.83
57668;BME280;43499;52.366;12.912;2022-08-01T03:54:43;100905.56;;;20.02;74.56
57668;BME280;43499;52.366;12.912;2022-08-01T03:55:56;100915.75;;;19.92;74.57
57668;BME280;43499;52.366;12.912;2022-08-01T03:57:02;100901.47;;;19.71;75.60
57668;BME280;43499;52.366;12.912;2022-08-01T03:58:06;100900.91;;;19.79;75.82
57668;BME280;43499;52.366;12.912;2022-08-01T03:59:11;100905.16;;;19.93;75.64
57668;BME280;43499;52.366;12.912;2022-08-01T04:00:19;100907.09;;;19.97;75.35
57668;BME280;43499;52.366;12.912;2022-08-01T04:01:24;100903.81;;;20.03;75.27
57668;BME280;43499;52.366;12.912;2022-08-01T04:02:31;100907.31;;;20.02;75.54
57668;BME280;43499;52.366;12.912;2022-08-01T04:03:35;100910.22;;;20.07;75.52
57668;BME280;43499;52.366;12.912;2022-08-01T04:04:37;100907.25;;;20.00;75.33
57668;BME280;43499;52.366;12.912;2022-08-01T04:05:48;100908.09;;;19.99;75.35
57668;BME280;43499;52.366;12.912;2022-08-01T04:06:53;100903.69;;;20.00;75.56
57668;BME280;43499;52.366;12.912;2022-08-01T04:07:56;100907.47;;;20.05;75.60
57668;BME280;43499;52.366;12.912;2022-08-01T04:09:00;100905.78;;;20.07;75.58
57668;BME280;43499;52.366;12.912;2022-08-01T04:10:04;100908.25;;;20.02;75.76
57668;BME280;43499;52.366;12.912;2022-08-01T04:11:09;100904.94;;;20.08;75.61
57668;BME280;43499;52.366;12.912;2022-08-01T04:12:24;100910.13;;;20.05;75.99
57668;BME280;43499;52.366;12.912;2022-08-01T04:13:27;100902.91;;;20.02;76.12
57668;BME280;43499;52.366;12.912;2022-08-01T04:14:36;100906.56;;;20.04;76.12
57668;BME280;43499;52.366;12.912;2022-08-01T04:15:45;100916.03;;;20.17;75.90
57668;BME280;43499;52.366;12.912;2022-08-01T04:16:55;100916.66;;;20.12;75.78
57668;BME280;43499;52.366;12.912;2022-08-01T04:17:56;100911.81;;;20.23;75.70
57668;BME280;43499;52.366;12.912;2022-08-01T04:18:59;100913.50;;;20.21;75.76
57668;BME280;43499;52.366;12.912;2022-08-01T04:20:09;100919.09;;;20.27;75.85
57668;BME280;43499;52.366;12.912;2022-08-01T04:21:12;100904.91;;;20.28;75.47
57668;BME280;43499;52.366;12.912;2022-08-01T04:22:16;100919.31;;;20.31;75.64
57668;BME280;43499;52.366;12.912;2022-08-01T04:23:26;100916.72;;;20.33;75.77
57668;BME280;43499;52.366;12.912;2022-08-01T04:24:36;100926.91;;;20.22;75.95
57668;BME280;43499;52.366;12.912;2022-08-01T04:25:57;100913.66;;;20.24;75.97
57668;BME280;43499;52.366;12.912;2022-08-01T04:27:07;100918.00;;;20.22;75.93
57668;BME280;43499;52.366;12.912;2022-08-01T04:28:11;100924.59;;;20.30;76.08
57668;BME280;43499;52.366;12.912;2022-08-01T04:29:29;100918.41;;;20.31;75.89
57668;BME280;43499;52.366;12.912;2022-08-01T04:30:40;100915.78;;;20.32;75.76
57668;BME280;43499;52.366;12.912;2022-08-01T04:31:53;100911.13;;;20.48;75.71
57668;BME280;43499;52.366;12.912;2022-08-01T04:33:11;100915.13;;;20.58;75.20
57668;BME280;43499;52.366;12.912;2022-08-01T04:34:30;100922.00;;;20.53;74.94
57668;BME280;43499;52.366;12.912;2022-08-01T04:35:36;100921.13;;;20.32;76.24
57668;BME280;43499;52.366;12.912;2022-08-01T04:36:44;100921.31;;;20.37;75.97
57668;BME280;43499;52.366;12.912;2022-08-01T04:37:55;100921.28;;;20.35;76.03
57668;BME280;43499;52.366;12.912;2022-08-01T04:39:04;100913.56;;;20.42;76.15
57668;BME280;43499;52.366;12.912;2022-08-01T04:40:10;100920.28;;;20.53;75.80
57668;BME280;43499;52.366;12.912;2022-08-01T04:41:25;100917.72;;;20.56;75.63
57668;BME280;43499;52.366;12.912;2022-08-01T04:42:28;100923.06;;;20.56;75.56
57668;BME280;43499;52.366;12.912;2022-08-01T04:43:31;100923.91;;;20.55;75.92
57668;BME280;43499;52.366;12.912;2022-08-01T04:44:36;100922.06;;;20.54;75.90
57668;BME280;43499;52.366;12.912;2022-08-01T04:45:42;100928.28;;;20.53;75.95
57668;BME280;43499;52.366;12.912;2022-08-01T04:46:44;100927.41;;;20.33;76.35
57668;BME280;43499;52.366;12.912;2022-08-01T04:47:49;100932.16;;;20.40;76.36
57668;BME280;43499;52.366;12.912;2022-08-01T04:48:53;100926.66;;;20.37;76.80
57668;BME280;43499;52.366;12.912;2022-08-01T04:49:57;100930.81;;;20.50;76.68
57668;BME280;43499;52.366;12.912;2022-08-01T04:51:04;100935.41;;;20.54;76.33
57668;BME280;43499;52.366;12.912;2022-08-01T04:52:10;100922.22;;;20.57;75.80
57668;BME280;43499;52.366;12.912;2022-08-01T04:53:13;100929.56;;;20.63;75.91
57668;BME280;43499;52.366;12.912;2022-08-01T04:54:18;100931.91;;;20.75;75.44
57668;BME280;43499;52.366;12.912;2022-08-01T04:55:22;100930.44;;;20.82;75.40
57668;BME280;43499;52.366;12.912;2022-08-01T04:56:23;100923.25;;;20.80;75.25
57668;BME280;43499;52.366;12.912;2022-08-01T04:57:27;100927.88;;;20.85;75.14
57668;BME280;43499;52.366;12.912;2022-08-01T04:58:30;100928.13;;;20.91;75.01
57668;BME280;43499;52.366;12.912;2022-08-01T04:59:37;100921.16;;;20.94;74.56
57668;BME280;43499;52.366;12.912;2022-08-01T05:00:45;100924.03;;;20.99;74.49
57668;BME280;43499;52.366;12.912;2022-08-01T05:01:50;100922.47;;;21.04;74.35
57668;BME280;43499;52.366;12.912;2022-08-01T05:03:06;100925.38;;;20.89;74.73
57668;BME280;43499;52.366;12.912;2022-08-01T05:04:10;100926.13;;;20.85;75.13
57668;BME280;43499;52.366;12.912;2022-08-01T05:05:11;100929.03;;;20.91;74.90
57668;BME280;43499;52.366;12.912;2022-08-01T05:06:14;100921.09;;;20.93;74.88
57668;BME280;43499;52.366;12.912;2022-08-01T05:07:15;100924.88;;;20.98;74.79
57668;BME280;43499;52.366;12.912;2022-08-01T05:08:26;100921.34;;;20.99;74.34
57668;BME280;43499;52.366;12.912;2022-08-01T05:09:27;100922.84;;;20.92;74.39
57668;BME280;43499;52.366;12.912;2022-08-01T05:10:30;100929.22;;;20.96;74.50
57668;BME280;43499;52.366;12.912;2022-08-01T05:11:31;100929.41;;;21.01;74.44
57668;BME280;43499;52.366;12.912;2022-08-01T05:12:41;100930.34;;;21.01;74.66
57668;BME280;43499;52.366;12.912;2022-08-01T05:13:56;100926.09;;;21.06;74.49
57668;BME280;43499;52.366;12.912;2022-08-01T05:15:03;100926.28;;;21.11;73.81
57668;BME280;43499;52.366;12.912;2022-08-01T05:16:13;100930.91;;;21.15;74.01
57668;BME280;43499;52.366;12.912;2022-08-01T05:17:18;100931.56;;;21.09;73.82
57668;BME280;43499;52.366;12.912;2022-08-01T05:18:25;100932.41;;;21.08;73.73
57668;BME280;43499;52.366;12.912;2022-08-01T05:19:37;100934.91;;;21.04;73.77
57668;BME280;43499;52.366;12.912;2022-08-01T05:20:41;100934.06;;;21.05;73.92
57668;BME280;43499;52.366;12.912;2022-08-01T05:21:48;100927.91;;;21.07;73.92
57668;BME280;43499;52.366;12.912;2022-08-01T05:22:53;100929.31;;;20.98;74.05
57668;BME280;43499;52.366;12.912;2022-08-01T05:23:55;100947.53;;;20.87;74.39
57668;BME280;43499;52.366;12.912;2022-08-01T05:25:18;100939.88;;;20.94;74.68
57668;BME280;43499;52.366;12.912;2022-08-01T05:26:23;100935.88;;;21.06;74.05
57668;BME280;43499;52.366;12.912;2022-08-01T05:27:24;100932.59;;;21.13;73.69
57668;BME280;43499;52.366;12.912;2022-08-01T05:28:30;100939.91;;;21.17;73.46
57668;BME280;43499;52.366;12.912;2022-08-01T05:29:34;100936.41;;;21.18;73.41
57668;BME280;43499;52.366;12.912;2022-08-01T05:30:42;100935.13;;;21.31;73.10
57668;BME280;43499;52.366;12.912;2022-08-01T05:31:49;100940.47;;;21.31;73.39
57668;BME280;43499;52.366;12.912;2022-08-01T05:33:00;100943.28;;;21.34;73.21
57668;BME280;43499;52.366;12.912;2022-08-01T05:44:22;100956.50;;;20.87;76.23
57668;BME280;43499;52.366;12.912;2022-08-01T05:45:40;100951.41;;;20.93;76.61
57668;BME280;43499;52.366;12.912;2022-08-01T05:47:06;100948.91;;;20.98;76.18
57668;BME280;43499;52.366;12.912;2022-08-01T05:50:43;100953.66;;;21.05;76.01
57668;BME280;43499;52.366;12.912;2022-08-01T05:52:06;100950.88;;;21.02;76.27
57668;BME280;43499;52.366;12.912;2022-08-01T05:56:32;100940.91;;;20.98;77.27
57668;BME280;43499;52.366;12.912;2022-08-01T05:58:42;100954.44;;;21.03;76.71
57668;BME280;43499;52.366;12.912;2022-08-01T06:03:18;100951.78;;;21.03;76.49
57668;BME280;43499;52.366;12.912;2022-08-01T06:06:16;100943.84;;;21.04;76.50
57668;BME280;43499;52.366;12.912;2022-08-01T06:08:59;100956.59;;;21.11;76.47
57668;BME280;43499;52.366;12.912;2022-08-01T06:10:00;100948.41;;;21.07;76.69
57668;BME280;43499;52.366;12.912;2022-08-01T06:11:03;100944.88;;;21.08;76.35
57668;BME280;43499;52.366;12.912;2022-08-01T06:12:04;100946.72;;;21.09;76.67
57668;BME280;43499;52.366;12.912;2022-08-01T06:13:17;100948.13;;;21.01;77.21
57668;BME280;43499;52.366;12.912;2022-08-01T06:14:27;100958.94;;;21.04;77.72
57668;BME280;43499;52.366;12.912;2022-08-01T06:15:32;100963.50;;;21.06;78.19
57668;BME280;43499;52.366;12.912;2022-08-01T06:16:33;100950.78;;;21.01;77.89
57668;BME280;43499;52.366;12.912;2022-08-01T06:17:39;100956.78;;;20.95;78.25
57668;BME280;43499;52.366;12.912;2022-08-01T06:18:44;100962.03;;;20.92;78.47
57668;BME280;43499;52.366;12.912;2022-08-01T06:23:44;100972.78;;;20.74;80.42
57668;BME280;43499;52.366;12.912;2022-08-01T06:24:54;100964.16;;;20.60;80.62
57668;BME280;43499;52.366;12.912;2022-08-01T06:27:13;100963.13;;;20.56;80.77
57668;BME280;43499;52.366;12.912;2022-08-01T06:31:25;100961.63;;;20.63;81.72
57668;BME280;43499;52.366;12.912;2022-08-01T06:32:07;100967.97;;;20.65;81.69
57668;BME280;43499;52.366;12.912;2022-08-01T06:33:36;100983.72;;;20.78;82.06
57668;BME280;43499;52.366;12.912;2022-08-01T06:35:05;100979.69;;;20.69;82.34
57668;BME280;43499;52.366;12.912;2022-08-01T06:36:40;100967.94;;;20.85;80.75
57668;BME280;43499;52.366;12.912;2022-08-01T06:39:29;100973.91;;;20.99;80.05
57668;BME280;43499;52.366;12.912;2022-08-01T06:41:11;100972.97;;;20.98;80.34
57668;BME280;43499;52.366;12.912;2022-08-01T06:42:16;100974.66;;;20.96;80.23
57668;BME280;43499;52.366;12.912;2022-08-01T06:43:17;100979.94;;;20.94;79.88
57668;BME280;43499;52.366;12.912;2022-08-01T06:44:20;100989.97;;;21.00;79.87
57668;BME280;43499;52.366;12.912;2022-08-01T06:45:21;100983.00;;;21.04;79.61
57668;BME280;43499;52.366;12.912;2022-08-01T06:46:25;100981.91;;;20.99;79.62
57668;BME280;43499;52.366;12.912;2022-08-01T06:47:27;100984.63;;;21.00;79.74
57668;BME280;43499;52.366;12.912;2022-08-01T06:48:29;100982.88;;;21.01;79.88
57668;BME280;43499;52.366;12.912;2022-08-01T06:49:45;100980.47;;;21.07;79.52
57668;BME280;43499;52.366;12.912;2022-08-01T06:50:49;100981.44;;;21.09;79.27
57668;BME280;43499;52.366;12.912;2022-08-01T06:52:13;100981.56;;;21.12;78.60
57668;BME280;43499;52.366;12.912;2022-08-01T06:53:19;100983.53;;;21.16;78.95
57668;BME280;43499;52.366;12.912;2022-08-01T06:54:23;100984.88;;;21.27;78.85
57668;BME280;43499;52.366;12.912;2022-08-01T06:55:35;100978.88;;;21.33;78.69
57668;BME280;43499;52.366;12.912;2022-08-01T06:56:42;100983.53;;;21.37;77.95
57668;BME280;43499;52.366;12.912;2022-08-01T06:57:56;100985.41;;;21.40;78.16
57668;BME280;43499;52.366;12.912;2022-08-01T06:59:21;100989.09;;;21.43;78.32
57668;BME280;43499;52.366;12.912;2022-08-01T07:00:43;100982.19;;;21.49;77.98
57668;BME280;43499;52.366;12.912;2022-08-01T07:01:59;100984.28;;;21.35;78.36
57668;BME280;43499;52.366;12.912;2022-08-01T07:03:38;100985.94;;;21.54;77.50
57668;BME280;43499;52.366;12.912;2022-08-01T07:05:09;100991.69;;;21.63;77.71
57668;BME280;43499;52.366;12.912;2022-08-01T07:07:12;100988.09;;;21.84;76.95
57668;BME280;43499;52.366;12.912;2022-08-01T07:08:29;100985.75;;;21.93;76.70
57668;BME280;43499;52.366;12.912;2022-08-01T07:09:35;100979.97;;;21.82;76.11
57668;BME280;43499;52.366;12.912;2022-08-01T07:12:27;100985.59;;;21.88;76.82
57668;BME280;43499;52.366;12.912;2022-08-01T07:13:29;100993.25;;;22.02;76.28
57668;BME280;43499;52.366;12.912;2022-08-01T07:14:42;100980.13;;;22.10;76.29
57668;BME280;43499;52.366;12.912;2022-08-01T07:16:11;100984.19;;;22.23;75.84
57668;BME280;43499;52.366;12.912;2022-08-01T07:17:23;100985.38;;;22.07;76.21
57668;BME280;43499;52.366;12.912;2022-08-01T07:19:18;100991.13;;;21.93;76.53
57668;BME280;43499;52.366;12.912;2022-08-01T07:20:28;100987.59;;;21.94;77.01
57668;BME280;43499;52.366;12.912;2022-08-01T07:21:39;100985.69;;;21.92;76.54
57668;BME280;43499;52.366;12.912;2022-08-01T07:27:13;100995.66;;;21.73;76.72
57668;BME280;43499;52.366;12.912;2022-08-01T07:28:17;100987.69;;;21.97;75.92
57668;BME280;43499;52.366;12.912;2022-08-01T07:29:24;100990.44;;;22.23;75.16
57668;BME280;43499;52.366;12.912;2022-08-01T07:30:27;100983.00;;;22.39;74.71
57668;BME280;43499;52.366;12.912;2022-08-01T07:31:30;100988.31;;;22.61;73.93
57668;BME280;43499;52.366;12.912;2022-08-01T07:55:56;101002.56;;;23.93;66.22
57668;BME280;43499;52.366;12.912;2022-08-01T07:58:02;101010.84;;;23.44;67.35
57668;BME280;43499;52.366;12.912;2022-08-01T08:06:58;101010.13;;;24.37;65.03
57668;BME280;43499;52.366;12.912;2022-08-01T08:07:59;101012.66;;;24.62;64.71
57668;BME280;43499;52.366;12.912;2022-08-01T08:09:01;101011.44;;;24.82;64.02
57668;BME280;43499;52.366;12.912;2022-08-01T08:10:06;101011.47;;;24.83;63.93
57668;BME280;43499;52.366;12.912;2022-08-01T08:11:10;101010.22;;;24.70;63.28
57668;BME280;43499;52.366;12.912;2022-08-01T08:12:12;101007.66;;;24.75;63.19
57668;BME280;43499;52.366;12.912;2022-08-01T08:13:14;101000.03;;;24.90;63.13
57668;BME280;43499;52.366;12.912;2022-08-01T08:14:17;101009.09;;;24.94;62.17
57668;BME280;43499;52.366;12.912;2022-08-01T08:16:13;101007.28;;;24.94;62.92
57668;BME280;43499;52.366;12.912;2022-08-01T08:17:16;101009.59;;;24.79;63.58
57668;BME280;43499;52.366;12.912;2022-08-01T08:18:18;101014.03;;;24.78;62.96
57668;BME280;43499;52.366;12.912;2022-08-01T08:19:20;101007.78;;;24.47;63.97
57668;BME280;43499;52.366;12.912;2022-08-01T08:20:22;101014.16;;;24.21;64.34
57668;BME280;43499;52.366;12.912;2022-08-01T08:21:25;101005.69;;;24.37;64.57
57668;BME280;43499;52.366;12.912;2022-08-01T08:22:29;101009.72;;;24.53;64.02
57668;BME280;43499;52.366;12.912;2022-08-01T08:23:30;101014.09;;;24.49;64.05
57668;BME280;43499;52.366;12.912;2022-08-01T08:24:50;101021.19;;;24.15;65.13
57668;BME280;43499;52.366;12.912;2022-08-01T08:25:52;101015.34;;;24.01;65.07
57668;BME280;43499;52.366;12.912;2022-08-01T08:26:56;101014.31;;;23.96;65.24
57668;BME280;43499;52.366;12.912;2022-08-01T08:27:58;101023.97;;;23.91;64.77
57668;BME280;43499;52.366;12.912;2022-08-01T08:29:00;101016.66;;;23.58;66.31
57668;BME280;43499;52.366;12.912;2022-08-01T08:30:02;101011.63;;;23.41;66.18
57668;BME280;43499;52.366;12.912;2022-08-01T08:31:06;101019.03;;;23.49;66.32
57668;BME280;43499;52.366;12.912;2022-08-01T08:32:08;101020.00;;;23.51;66.44
57668;BME280;43499;52.366;12.912;2022-08-01T08:33:13;101008.75;;;23.35;66.65
57668;BME280;43499;52.366;12.912;2022-08-01T08:34:18;101013.38;;;23.39;66.51
57668;BME280;43499;52.366;12.912;2022-08-01T08:35:19;101016.50;;;23.53;66.28
57668;BME280;43499;52.366;12.912;2022-08-01T08:36:21;101006.56;;;23.78;65.75
57668;BME280;43499;52.366;12.912;2022-08-01T08:37:22;101011.97;;;23.80;64.79
57668;BME280;43499;52.366;12.912;2022-08-01T08:38:24;101012.03;;;23.81;64.96
57668;BME280;43499;52.366;12.912;2022-08-01T08:39:27;101018.75;;;23.67;64.70
57668;BME280;43499;52.366;12.912;2022-08-01T08:40:30;101017.66;;;23.62;65.27
57668;BME280;43499;52.366;12.912;2022-08-01T08:41:31;101015.22;;;23.40;65.67
57668;BME280;43499;52.366;12.912;2022-08-01T08:42:35;101018.97;;;23.47;66.00
57668;BME280;43499;52.366;12.912;2022-08-01T08:43:37;101025.56;;;23.30;65.84
57668;BME280;43499;52.366;12.912;2022-08-01T08:44:40;101015.91;;;23.35;65.75
57668;BME280;43499;52.366;12.912;2022-08-01T08:46:03;101017.94;;;23.42;66.07
57668;BME280;43499;52.366;12.912;2022-08-01T08:47:07;101017.25;;;23.49;66.10
57668;BME280;43499;52.366;12.912;2022-08-01T08:48:14;101019.91;;;23.48;66.60
57668;BME280;43499;52.366;12.912;2022-08-01T08:49:23;101018.91;;;23.44;66.31
57668;BME280;43499;52.366;12.912;2022-08-01T08:50:26;101024.44;;;23.50;65.92
57668;BME280;43499;52.366;12.912;2022-08-01T08:51:32;101030.13;;;23.60;65.57
57668;BME280;43499;52.366;12.912;2022-08-01T08:52:42;101020.00;;;23.51;66.13
57668;BME280;43499;52.366;12.912;2022-08-01T08:53:47;101029.06;;;23.54;65.97
57668;BME280;43499;52.366;12.912;2022-08-01T08:54:51;101037.19;;;23.30;66.07
57668;BME280;43499;52.366;12.912;2022-08-01T08:55:57;101032.75;;;23.31;66.36
57668;BME280;43499;52.366;12.912;2022-08-01T08:57:01;101034.03;;;23.42;66.07
57668;BME280;43499;52.366;12.912;2022-08-01T08:58:06;101034.31;;;23.24;65.89
57668;BME280;43499;52.366;12.912;2022-08-01T08:59:11;101040.66;;;23.26;66.07
57668;BME280;43499;52.366;12.912;2022-08-01T09:00:17;101040.22;;;23.39;65.95
57668;BME280;43499;52.366;12.912;2022-08-01T09:01:19;101045.72;;;23.44;65.64
57668;BME280;43499;52.366;12.912;2022-08-01T09:02:22;101037.97;;;23.53;65.41
57668;BME280;43499;52.366;12.912;2022-08-01T09:03:24;101042.81;;;23.65;65.34
57668;BME280;43499;52.366;12.912;2022-08-01T09:04:27;101044.66;;;23.66;65.04
57668;BME280;43499;52.366;12.912;2022-08-01T09:05:29;101041.25;;;23.72;64.32
57668;BME280;43499;52.366;12.912;2022-08-01T09:06:31;101049.81;;;23.87;63.59
57668;BME280;43499;52.366;12.912;2022-08-01T09:07:37;101052.00;;;23.99;63.60
57668;BME280;43499;52.366;12.912;2022-08-01T09:08:39;101052.06;;;24.01;63.06
57668;BME280;43499;52.366;12.912;2022-08-01T09:09:41;101049.66;;;24.10;63.11
57668;BME280;43499;52.366;12.912;2022-08-01T09:10:44;101050.50;;;24.09;61.62
57668;BME280;43499;52.366;12.912;2022-08-01T09:11:45;101053.03;;;24.33;62.06
57668;BME280;43499;52.366;12.912;2022-08-01T09:13:03;101047.94;;;24.43;61.24
57668;BME280;43499;52.366;12.912;2022-08-01T09:16:07;101052.59;;;24.48;60.82
57668;BME280;43499;52.366;12.912;2022-08-01T09:17:09;101056.81;;;24.40;61.27
57668;BME280;43499;52.366;12.912;2022-08-01T09:20:10;101057.22;;;24.24;62.60
57668;BME280;43499;52.366;12.912;2022-08-01T09:21:24;101058.03;;;23.94;61.97
57668;BME280;43499;52.366;12.912;2022-08-01T09:22:40;101059.69;;;23.88;62.26
57668;BME280;43499;52.366;12.912;2022-08-01T09:24:03;101059.31;;;23.78;62.36
57668;BME280;43499;52.366;12.912;2022-08-01T09:25:21;101056.47;;;23.44;63.38
57668;BME280;43499;52.366;12.912;2022-08-01T09:27:31;101065.94;;;23.34;63.03
57668;BME280;43499;52.366;12.912;2022-08-01T09:28:29;101059.78;;;23.37;63.49
57668;BME280;43499;52.366;12.912;2022-08-01T09:31:28;101070.19;;;23.27;63.94
57668;BME280;43499;52.366;12.912;2022-08-01T09:32:55;101060.81;;;23.16;64.00
57668;BME280;43499;52.366;12.912;2022-08-01T09:34:07;101062.06;;;23.00;64.03
57668;BME280;43499;52.366;12.912;2022-08-01T09:35:25;101066.53;;;23.00;64.86
57668;BME280;43499;52.366;12.912;2022-08-01T09:36:53;101061.78;;;22.92;65.15
57668;BME280;43499;52.366;12.912;2022-08-01T09:38:21;101071.53;;;22.90;64.93
57668;BME280;43499;52.366;12.912;2022-08-01T09:39:31;101072.50;;;22.92;65.03
57668;BME280;43499;52.366;12.912;2022-08-01T09:40:55;101072.28;;;22.86;64.33
57668;BME280;43499;52.366;12.912;2022-08-01T09:42:26;101070.53;;;22.62;64.46
57668;BME280;43499;52.366;12.912;2022-08-01T09:43:30;101071.44;;;22.63;64.44
57668;BME280;43499;52.366;12.912;2022-08-01T09:44:43;101075.50;;;22.76;64.40
57668;BME280;43499;52.366;12.912;2022-08-01T09:45:49;101081.22;;;22.87;64.76
57668;BME280;43499;52.366;12.912;2022-08-01T09:46:54;101074.50;;;22.98;64.24
57668;BME280;43499;52.366;12.912;2022-08-01T09:48:13;101080.44;;;23.15;64.03